Chicago, Illinois
Traffic Map
Current Weather Conditions
Chicago, Illinois
Overcast Haze
Overcast
51°
Feels Like: 51°
Wind Chill: 51° Ceiling: 600
Heat Index: 51° Visibility: 5mi
Dew Point: 50° Wind: 9mph
Humidity: 96% Direction: 230° (SW)
Pressure: 29.9in Gusts: 0mph
Raw Report DataKMDW 270753Z 23008KT 5SM BR OVC006 11/10 A2990 RMK AO2 SLP124 T01060100
Traffic Incident Summary
Active as of:
Severity:
Category:
InformationThere was an issue retrieving the traffic information for this location. Please try a different location or try again shortly.
Advertisements
Track Severe Weather on mobile